createdAt,value
2016-12-01T00:00:38.254Z,0
2016-12-01T00:01:38.389Z,0
2016-12-01T00:02:38.159Z,0
2016-12-01T00:03:39.282Z,0
2016-12-01T00:04:39.601Z,0
2016-12-01T00:05:39.380Z,0
2016-12-01T00:06:39.350Z,0
2016-12-01T00:07:38.248Z,0
2016-12-01T00:08:38.490Z,0
2016-12-01T00:09:38.630Z,0
2016-12-01T00:10:38.430Z,0
2016-12-01T00:11:38.429Z,0
2016-12-01T00:12:38.238Z,0
2016-12-01T00:13:38.303Z,0
2016-12-01T00:14:38.276Z,0
2016-12-01T00:15:38.595Z,0
2016-12-01T00:16:38.543Z,0
2016-12-01T00:17:38.377Z,0
2016-12-01T00:18:38.535Z,0
2016-12-01T00:19:38.574Z,0
2016-12-01T00:20:38.579Z,0
2016-12-01T00:21:38.337Z,0
2016-12-01T00:22:39.162Z,0
2016-12-01T00:23:38.309Z,0
2016-12-01T00:24:38.460Z,0
2016-12-01T00:25:38.337Z,0
2016-12-01T00:26:38.452Z,0
2016-12-01T00:27:38.635Z,0
2016-12-01T00:28:39.018Z,0
2016-12-01T00:29:38.564Z,0
2016-12-01T00:30:38.479Z,0
2016-12-01T00:31:38.355Z,0
2016-12-01T00:32:38.434Z,0
2016-12-01T00:33:38.569Z,0
2016-12-01T00:34:38.387Z,0
2016-12-01T00:35:38.396Z,0
2016-12-01T00:36:38.340Z,0
2016-12-01T00:37:38.405Z,0
2016-12-01T00:38:39.939Z,0
2016-12-01T00:39:38.114Z,0
2016-12-01T00:40:38.240Z,0
2016-12-01T00:41:38.400Z,0
2016-12-01T00:42:38.203Z,0
2016-12-01T00:43:38.518Z,0
2016-12-01T00:44:38.453Z,0
2016-12-01T00:45:38.421Z,0
2016-12-01T00:46:38.308Z,0
2016-12-01T00:47:38.227Z,0
2016-12-01T00:48:38.138Z,0
2016-12-01T00:49:38.277Z,0
2016-12-01T00:50:38.434Z,0
2016-12-01T00:51:38.887Z,0
2016-12-01T00:52:38.421Z,0
2016-12-01T00:53:38.404Z,0
2016-12-01T00:54:38.340Z,0
2016-12-01T00:55:38.320Z,0
2016-12-01T00:56:38.385Z,0
2016-12-01T00:57:38.161Z,0
2016-12-01T00:58:38.799Z,0
2016-12-01T00:59:38.273Z,0
2016-12-01T01:00:38.478Z,0
2016-12-01T01:01:38.301Z,0
2016-12-01T01:02:38.302Z,0
2016-12-01T01:03:38.368Z,0
2016-12-01T01:04:38.341Z,0
2016-12-01T01:05:38.164Z,0
2016-12-01T01:06:38.293Z,0
2016-12-01T01:07:38.370Z,0
2016-12-01T01:08:38.349Z,0
2016-12-01T01:09:38.335Z,0
2016-12-01T01:10:38.271Z,0
2016-12-01T01:11:38.293Z,0
2016-12-01T01:12:38.515Z,0
2016-12-01T01:13:38.252Z,0
2016-12-01T01:14:38.343Z,0
2016-12-01T01:15:38.392Z,0
2016-12-01T01:16:38.971Z,0
2016-12-01T01:17:38.246Z,0
2016-12-01T01:18:38.363Z,0
2016-12-01T01:19:39.920Z,0
2016-12-01T01:20:38.435Z,0
2016-12-01T01:21:38.333Z,0
2016-12-01T01:22:38.254Z,0
2016-12-01T01:23:38.302Z,0
2016-12-01T01:24:38.236Z,0
2016-12-01T01:25:38.341Z,0
2016-12-01T01:26:38.543Z,0
2016-12-01T01:27:38.502Z,0
2016-12-01T01:28:38.560Z,0
2016-12-01T01:29:38.287Z,0
2016-12-01T01:30:38.514Z,0
2016-12-01T01:31:38.430Z,0
2016-12-01T01:32:38.413Z,0
2016-12-01T01:33:38.397Z,0
2016-12-01T01:34:38.414Z,0
2016-12-01T01:35:39.233Z,0
2016-12-01T01:36:38.408Z,0
2016-12-01T01:37:38.388Z,0
2016-12-01T01:38:38.604Z,0
2016-12-01T01:39:38.413Z,0
2016-12-01T01:40:38.657Z,0
2016-12-01T01:41:38.588Z,0
2016-12-01T01:42:39.776Z,0
2016-12-01T01:43:38.400Z,0
2016-12-01T01:44:38.363Z,0
2016-12-01T01:45:38.498Z,0
2016-12-01T01:46:38.452Z,0
2016-12-01T01:47:38.549Z,0
2016-12-01T01:48:38.512Z,0
2016-12-01T01:49:38.359Z,0
2016-12-01T01:50:38.378Z,0
2016-12-01T01:51:38.366Z,0
2016-12-01T01:52:38.426Z,0
2016-12-01T01:53:38.377Z,0
2016-12-01T01:54:38.265Z,0
2016-12-01T01:55:38.481Z,0
2016-12-01T01:56:38.400Z,0
2016-12-01T01:57:38.386Z,0
2016-12-01T01:58:38.493Z,0
2016-12-01T01:59:38.628Z,0
2016-12-01T02:00:38.437Z,0
2016-12-01T02:01:38.904Z,0
2016-12-01T02:02:38.360Z,0
2016-12-01T02:03:38.397Z,0
2016-12-01T02:04:38.430Z,0
2016-12-01T02:05:38.381Z,0
2016-12-01T02:06:38.349Z,0
2016-12-01T02:07:38.376Z,0
2016-12-01T02:08:38.247Z,0
2016-12-01T02:09:38.394Z,0
2016-12-01T02:10:38.420Z,0
2016-12-01T02:11:38.437Z,0
2016-12-01T02:12:39.571Z,0
2016-12-01T02:13:38.466Z,0
2016-12-01T02:14:38.209Z,0
2016-12-01T02:15:38.481Z,0
2016-12-01T02:16:38.331Z,0
2016-12-01T02:17:38.540Z,0
2016-12-01T02:18:38.440Z,0
2016-12-01T02:19:38.499Z,0
2016-12-01T02:20:38.628Z,0
2016-12-01T02:21:38.265Z,0
2016-12-01T02:22:38.400Z,0
2016-12-01T02:23:38.423Z,0
2016-12-01T02:24:38.430Z,0
2016-12-01T02:25:38.438Z,0
2016-12-01T02:26:38.369Z,0
2016-12-01T02:27:38.448Z,0
2016-12-01T02:28:38.424Z,0
2016-12-01T02:29:38.550Z,0
2016-12-01T02:30:38.586Z,0
2016-12-01T02:31:38.730Z,0
2016-12-01T02:32:38.590Z,0
2016-12-01T02:33:38.491Z,0
2016-12-01T02:34:38.490Z,0
2016-12-01T02:35:38.517Z,0
2016-12-01T02:36:38.412Z,0
2016-12-01T02:37:38.494Z,0
2016-12-01T02:38:38.295Z,0
2016-12-01T02:39:38.521Z,0
2016-12-01T02:40:38.553Z,0
2016-12-01T02:41:38.620Z,0
2016-12-01T02:42:38.131Z,0
2016-12-01T02:43:38.337Z,0
2016-12-01T02:44:38.221Z,0
2016-12-01T02:45:38.331Z,0
2016-12-01T02:46:38.497Z,0
2016-12-01T02:47:38.256Z,0
2016-12-01T02:48:38.332Z,0
2016-12-01T02:49:38.289Z,0
2016-12-01T02:50:38.438Z,0
2016-12-01T02:51:38.278Z,0
2016-12-01T02:52:38.545Z,0
2016-12-01T02:53:38.538Z,0
2016-12-01T02:54:38.585Z,0
2016-12-01T02:55:38.362Z,0
2016-12-01T02:56:38.415Z,0
2016-12-01T02:57:39.633Z,0
2016-12-01T02:58:38.221Z,0
2016-12-01T02:59:38.387Z,0
2016-12-01T03:00:38.393Z,0
2016-12-01T03:01:38.342Z,0
2016-12-01T03:02:38.471Z,0
2016-12-01T03:03:38.484Z,0
2016-12-01T03:04:38.515Z,0
2016-12-01T03:05:38.552Z,0
2016-12-01T03:06:38.244Z,0
2016-12-01T03:07:38.287Z,0
2016-12-01T03:08:38.308Z,0
2016-12-01T03:09:38.375Z,0
2016-12-01T03:10:38.420Z,0
2016-12-01T03:11:38.447Z,0
2016-12-01T03:12:38.246Z,0
2016-12-01T03:13:38.364Z,0
2016-12-01T03:14:38.383Z,0
2016-12-01T03:15:38.429Z,0
2016-12-01T03:16:38.261Z,0
2016-12-01T03:17:38.434Z,0
2016-12-01T03:18:38.412Z,0
2016-12-01T03:19:38.426Z,0
2016-12-01T03:20:38.645Z,0
2016-12-01T03:21:38.270Z,0
2016-12-01T03:22:38.571Z,0
2016-12-01T03:23:38.355Z,0
2016-12-01T03:24:38.254Z,0
2016-12-01T03:25:38.527Z,0
2016-12-01T03:26:38.539Z,0
2016-12-01T03:27:38.533Z,0
2016-12-01T03:28:38.506Z,0
2016-12-01T03:29:38.343Z,0
2016-12-01T03:30:38.630Z,0
2016-12-01T03:31:38.219Z,0
2016-12-01T03:32:38.548Z,0
2016-12-01T03:33:38.443Z,0
2016-12-01T03:34:38.601Z,0
2016-12-01T03:35:38.446Z,0
2016-12-01T03:36:38.496Z,0
2016-12-01T03:37:38.494Z,0
2016-12-01T03:38:38.561Z,0
2016-12-01T03:39:38.458Z,0
2016-12-01T03:40:38.571Z,0
2016-12-01T03:41:38.422Z,0
2016-12-01T03:42:38.512Z,0
2016-12-01T03:43:38.683Z,0
2016-12-01T03:44:38.565Z,0
2016-12-01T03:45:38.395Z,0
2016-12-01T03:46:38.706Z,0
2016-12-01T03:47:38.520Z,0
2016-12-01T03:48:38.285Z,0
2016-12-01T03:49:49.825Z,0
2016-12-01T03:50:38.622Z,0
2016-12-01T03:51:38.214Z,0
2016-12-01T03:52:38.494Z,0
2016-12-01T03:53:38.103Z,0
2016-12-01T03:54:38.531Z,0
2016-12-01T03:55:38.178Z,0
2016-12-01T03:56:38.751Z,0
2016-12-01T03:57:38.431Z,0
2016-12-01T03:58:38.404Z,0
2016-12-01T03:59:38.491Z,0
2016-12-01T04:00:38.565Z,0
2016-12-01T04:01:38.425Z,0
2016-12-01T04:02:38.243Z,0
2016-12-01T04:03:38.495Z,0
2016-12-01T04:04:38.524Z,0
2016-12-01T04:05:38.393Z,0
2016-12-01T04:06:38.486Z,0
2016-12-01T04:07:38.639Z,0
2016-12-01T04:08:38.551Z,0
2016-12-01T04:09:38.601Z,0
2016-12-01T04:10:38.554Z,0
2016-12-01T04:11:38.582Z,0
2016-12-01T04:12:38.582Z,0
2016-12-01T04:13:38.384Z,0
2016-12-01T04:14:38.451Z,0
2016-12-01T04:15:38.798Z,0
2016-12-01T04:16:38.493Z,0
2016-12-01T04:17:38.629Z,0
2016-12-01T04:18:38.502Z,0
2016-12-01T04:19:38.417Z,0
2016-12-01T04:20:38.362Z,0
2016-12-01T04:21:38.510Z,0
2016-12-01T04:22:38.471Z,0
2016-12-01T04:23:38.510Z,0
2016-12-01T04:24:38.512Z,0
2016-12-01T04:25:38.666Z,0
2016-12-01T04:26:38.506Z,0
2016-12-01T04:27:38.475Z,0
2016-12-01T04:28:38.560Z,0
2016-12-01T04:29:38.289Z,0
2016-12-01T04:30:38.489Z,0
2016-12-01T04:31:38.440Z,0
2016-12-01T04:32:38.417Z,0
2016-12-01T04:33:38.492Z,0
2016-12-01T04:34:38.528Z,0
2016-12-01T04:35:38.515Z,0
2016-12-01T04:36:38.595Z,0
2016-12-01T04:37:38.480Z,0
2016-12-01T04:38:38.525Z,0
2016-12-01T04:39:38.562Z,0
2016-12-01T04:40:38.598Z,0
2016-12-01T04:41:38.515Z,0
2016-12-01T04:42:38.532Z,0
2016-12-01T04:43:38.516Z,0
2016-12-01T04:44:38.465Z,0
2016-12-01T04:45:38.380Z,0
2016-12-01T04:46:38.612Z,0
2016-12-01T04:47:38.761Z,0
2016-12-01T04:48:38.631Z,0
2016-12-01T04:49:38.563Z,0
2016-12-01T04:50:38.490Z,0
2016-12-01T04:51:38.558Z,0
2016-12-01T04:52:38.339Z,0
2016-12-01T04:53:38.469Z,0
2016-12-01T04:54:38.409Z,0
2016-12-01T04:55:38.424Z,0
2016-12-01T04:56:38.388Z,0
2016-12-01T04:57:38.552Z,0
2016-12-01T04:58:38.675Z,0
2016-12-01T04:59:38.547Z,0
2016-12-01T05:00:38.345Z,0
2016-12-01T05:01:38.427Z,0
2016-12-01T05:02:38.303Z,0
2016-12-01T05:03:38.570Z,0
2016-12-01T05:04:38.379Z,0
2016-12-01T05:05:38.472Z,0
2016-12-01T05:06:38.539Z,0
2016-12-01T05:07:38.549Z,0
2016-12-01T05:08:38.627Z,0
2016-12-01T05:09:38.667Z,0
2016-12-01T05:10:38.569Z,0
2016-12-01T05:11:39.006Z,0
2016-12-01T05:12:38.722Z,0
2016-12-01T05:13:38.553Z,0
2016-12-01T05:14:38.652Z,0
2016-12-01T05:15:38.819Z,0
2016-12-01T05:16:38.815Z,0
2016-12-01T05:17:38.580Z,0
2016-12-01T05:18:38.607Z,0
2016-12-01T05:19:38.667Z,0
2016-12-01T05:20:41.423Z,0
2016-12-01T05:21:38.677Z,0
2016-12-01T05:22:39.162Z,0
2016-12-01T05:23:38.815Z,0
2016-12-01T05:24:38.813Z,0
2016-12-01T05:25:38.807Z,0
2016-12-01T05:26:40.095Z,0
2016-12-01T05:27:38.696Z,0
2016-12-01T05:28:38.525Z,0
2016-12-01T05:29:38.590Z,0
2016-12-01T05:30:38.465Z,0
2016-12-01T05:31:38.836Z,0
2016-12-01T05:32:38.514Z,0
2016-12-01T05:33:38.886Z,0
2016-12-01T05:34:38.734Z,0
2016-12-01T05:35:38.401Z,0
2016-12-01T05:36:38.563Z,0
2016-12-01T05:37:38.864Z,0
2016-12-01T05:38:38.501Z,0
2016-12-01T05:39:38.700Z,0
2016-12-01T05:40:38.886Z,0
2016-12-01T05:41:38.806Z,0
2016-12-01T05:42:38.515Z,0
2016-12-01T05:43:38.593Z,0
2016-12-01T05:44:40.796Z,0
2016-12-01T05:45:38.761Z,0
2016-12-01T05:46:38.831Z,0
2016-12-01T05:47:38.890Z,0
2016-12-01T05:48:38.571Z,0
2016-12-01T05:49:38.636Z,0
2016-12-01T05:50:38.710Z,0
2016-12-01T05:51:38.965Z,0
2016-12-01T05:52:38.864Z,0
2016-12-01T05:53:38.824Z,0
2016-12-01T05:54:38.757Z,0
2016-12-01T05:55:38.864Z,0
2016-12-01T05:56:38.711Z,0
2016-12-01T05:57:38.693Z,0
2016-12-01T05:58:38.895Z,0
2016-12-01T05:59:38.997Z,0
2016-12-01T06:00:38.591Z,0
2016-12-01T06:01:38.677Z,0
2016-12-01T06:02:38.674Z,0
2016-12-01T06:03:38.560Z,0
2016-12-01T06:04:38.508Z,0
2016-12-01T06:05:38.561Z,0
2016-12-01T06:06:38.620Z,0
2016-12-01T06:07:38.660Z,0
2016-12-01T06:08:38.539Z,0
2016-12-01T06:09:38.876Z,0
2016-12-01T06:10:38.888Z,0
2016-12-01T06:11:38.759Z,0
2016-12-01T06:12:38.811Z,0
2016-12-01T06:13:39.109Z,0
2016-12-01T06:14:38.836Z,0
2016-12-01T06:15:38.775Z,0
2016-12-01T06:16:38.883Z,0
2016-12-01T06:17:38.771Z,0
2016-12-01T06:18:38.824Z,0
2016-12-01T06:19:38.734Z,0
2016-12-01T06:20:38.666Z,0
2016-12-01T06:21:38.739Z,0
2016-12-01T06:22:38.664Z,0
2016-12-01T06:23:38.756Z,0
2016-12-01T06:24:38.600Z,0
2016-12-01T06:25:38.696Z,0
2016-12-01T06:26:38.659Z,0
2016-12-01T06:27:38.989Z,0
2016-12-01T06:28:38.736Z,0
2016-12-01T06:29:38.716Z,0
2016-12-01T06:30:38.744Z,0
2016-12-01T06:31:38.593Z,0
2016-12-01T06:32:38.565Z,0
2016-12-01T06:33:38.806Z,0
2016-12-01T06:34:38.713Z,0
2016-12-01T06:35:38.907Z,0
2016-12-01T06:36:38.828Z,0
2016-12-01T06:37:41.433Z,0
2016-12-01T06:38:39.797Z,0
2016-12-01T06:39:40.385Z,0
2016-12-01T06:40:38.693Z,0
2016-12-01T06:41:38.756Z,0
2016-12-01T06:42:38.800Z,0
2016-12-01T06:43:38.736Z,0
2016-12-01T06:44:38.878Z,0
2016-12-01T06:45:38.715Z,0
2016-12-01T06:46:38.541Z,0
2016-12-01T06:47:38.622Z,0
2016-12-01T06:48:38.637Z,0
2016-12-01T06:49:48.663Z,0
2016-12-01T06:50:38.594Z,0
2016-12-01T06:51:38.653Z,0
2016-12-01T06:52:38.932Z,0
2016-12-01T06:53:38.808Z,0
2016-12-01T06:54:38.703Z,0
2016-12-01T06:55:54.541Z,0
2016-12-01T06:56:38.820Z,0
2016-12-01T06:57:38.726Z,0
2016-12-01T06:58:40.309Z,0
2016-12-01T06:59:38.672Z,0
2016-12-01T07:00:38.816Z,0
2016-12-01T07:01:38.681Z,0
2016-12-01T07:02:38.688Z,0
2016-12-01T07:03:38.625Z,0
2016-12-01T07:04:38.645Z,0
2016-12-01T07:05:38.607Z,0
2016-12-01T07:06:38.700Z,0
2016-12-01T07:07:38.662Z,0
2016-12-01T07:08:38.691Z,0
2016-12-01T07:09:38.942Z,0
2016-12-01T07:10:38.731Z,0
2016-12-01T07:11:38.560Z,0
2016-12-01T07:12:38.562Z,0
2016-12-01T07:13:38.486Z,0
2016-12-01T07:14:38.587Z,0
2016-12-01T07:15:38.557Z,0
2016-12-01T07:16:38.610Z,0
2016-12-01T07:17:38.721Z,0
2016-12-01T07:18:39.061Z,0
2016-12-01T07:19:38.945Z,0
2016-12-01T07:20:38.683Z,0
2016-12-01T07:21:38.924Z,5
2016-12-01T07:22:38.711Z,5
2016-12-01T07:23:39.832Z,5
2016-12-01T07:24:38.690Z,5
2016-12-01T07:25:38.755Z,5
2016-12-01T07:26:38.764Z,5
2016-12-01T07:27:38.604Z,5
2016-12-01T07:28:38.843Z,5
2016-12-01T07:29:38.605Z,5
2016-12-01T07:30:38.873Z,5
2016-12-01T07:31:38.831Z,5
2016-12-01T07:32:38.850Z,10
2016-12-01T07:33:39.072Z,10
2016-12-01T07:34:38.776Z,10
2016-12-01T07:35:38.741Z,10
2016-12-01T07:36:39.337Z,10
2016-12-01T07:37:38.561Z,10
2016-12-01T07:38:39.662Z,15
2016-12-01T07:39:38.867Z,15
2016-12-01T07:40:38.928Z,15
2016-12-01T07:41:38.991Z,15
2016-12-01T07:42:38.675Z,15
2016-12-01T07:43:38.660Z,15
2016-12-01T07:44:38.735Z,15
2016-12-01T07:45:38.786Z,15
2016-12-01T07:48:45.872Z,20
2016-12-01T07:48:57.451Z,20
2016-12-01T07:49:57.536Z,20
2016-12-01T07:50:57.584Z,20
2016-12-01T07:51:57.446Z,25
2016-12-01T07:52:57.276Z,25
2016-12-01T07:53:57.493Z,30
2016-12-01T07:54:57.571Z,25
2016-12-01T07:55:57.352Z,25
2016-12-01T07:56:57.380Z,25
2016-12-01T07:57:57.586Z,25
2016-12-01T07:58:57.486Z,30
2016-12-01T07:59:57.586Z,30
2016-12-01T08:00:57.600Z,35
2016-12-01T08:01:57.544Z,35
2016-12-01T08:02:57.454Z,40
2016-12-01T08:03:57.419Z,35
2016-12-01T08:04:57.633Z,35
2016-12-01T08:05:57.720Z,30
2016-12-01T08:06:57.761Z,30
2016-12-01T08:07:57.655Z,35
2016-12-01T08:08:57.826Z,35
2016-12-01T08:09:57.626Z,40
2016-12-01T08:10:57.572Z,40
2016-12-01T08:11:57.652Z,40
2016-12-01T08:12:57.643Z,30
2016-12-01T08:13:58.108Z,30
2016-12-01T08:14:57.681Z,35
2016-12-01T08:15:58.001Z,35
2016-12-01T08:16:57.833Z,35
2016-12-01T08:17:57.750Z,40
2016-12-01T08:18:57.740Z,40
2016-12-01T08:19:57.473Z,45
2016-12-01T08:20:57.686Z,45
2016-12-01T08:21:57.717Z,40
2016-12-01T08:22:57.526Z,40
2016-12-01T08:23:57.689Z,40
2016-12-01T08:24:57.551Z,40
2016-12-01T08:25:57.502Z,40
2016-12-01T08:26:58.234Z,40
2016-12-01T08:27:57.474Z,45
2016-12-01T08:28:57.617Z,45
2016-12-01T08:29:57.456Z,50
2016-12-01T08:30:57.550Z,55
2016-12-01T08:31:57.536Z,60
2016-12-01T08:32:57.554Z,60
2016-12-01T08:33:57.571Z,65
2016-12-01T08:34:57.611Z,60
2016-12-01T08:35:57.634Z,55
2016-12-01T08:36:57.650Z,50
2016-12-01T08:37:57.507Z,50
2016-12-01T08:38:57.521Z,50
2016-12-01T08:39:57.634Z,50
2016-12-01T08:40:58.285Z,50
2016-12-01T08:41:57.311Z,50
2016-12-01T08:42:57.522Z,55
2016-12-01T08:43:57.515Z,55
2016-12-01T08:44:57.402Z,55
2016-12-01T08:45:57.559Z,60
2016-12-01T08:46:57.596Z,65
2016-12-01T08:47:57.436Z,75
2016-12-01T08:48:57.604Z,85
2016-12-01T08:49:57.569Z,90
2016-12-01T08:50:57.686Z,90
2016-12-01T08:51:57.501Z,90
2016-12-01T08:52:57.329Z,95
2016-12-01T08:53:57.517Z,95
2016-12-01T08:54:57.500Z,90
2016-12-01T08:55:57.850Z,95
2016-12-01T08:56:57.539Z,90
2016-12-01T08:57:57.520Z,95
2016-12-01T08:58:57.746Z,95
2016-12-01T08:59:57.766Z,90
2016-12-01T09:00:57.840Z,90
2016-12-01T09:01:57.693Z,95
2016-12-01T09:02:58.491Z,95
2016-12-01T09:03:57.641Z,100
2016-12-01T09:04:57.513Z,105
2016-12-01T09:05:57.868Z,105
2016-12-01T09:06:57.602Z,100
2016-12-01T09:07:57.642Z,105
2016-12-01T09:08:57.442Z,105
2016-12-01T09:09:57.551Z,110
2016-12-01T09:10:57.493Z,135
2016-12-01T09:11:57.347Z,145
2016-12-01T09:12:57.572Z,140
2016-12-01T09:13:57.618Z,135
2016-12-01T09:14:57.586Z,140
2016-12-01T09:15:57.740Z,140
2016-12-01T09:16:57.675Z,145
2016-12-01T09:17:57.491Z,160
2016-12-01T09:18:57.508Z,165
2016-12-01T09:19:57.536Z,160
2016-12-01T09:20:57.614Z,180
2016-12-01T09:21:57.607Z,205
2016-12-01T09:22:57.606Z,205
2016-12-01T09:23:57.544Z,195
2016-12-01T09:24:57.671Z,180
2016-12-01T09:25:57.760Z,190
2016-12-01T09:26:57.520Z,200
2016-12-01T09:27:57.611Z,195
2016-12-01T09:28:57.567Z,200
2016-12-01T09:29:57.728Z,190
2016-12-01T09:30:57.629Z,180
2016-12-01T09:31:57.798Z,180
2016-12-01T09:32:57.539Z,180
2016-12-01T09:33:57.478Z,180
2016-12-01T09:34:57.456Z,170
2016-12-01T09:35:57.605Z,170
2016-12-01T09:36:57.541Z,185
2016-12-01T09:37:57.692Z,195
2016-12-01T09:38:57.638Z,210
2016-12-01T09:39:57.599Z,210
2016-12-01T09:40:57.586Z,205
2016-12-01T09:41:57.500Z,210
2016-12-01T09:42:57.666Z,225
2016-12-01T09:43:58.379Z,245
2016-12-01T09:44:57.603Z,255
2016-12-01T09:45:57.587Z,275
2016-12-01T09:46:57.536Z,275
2016-12-01T09:47:57.336Z,265
2016-12-01T09:48:57.357Z,240
2016-12-01T09:49:57.497Z,230
2016-12-01T09:50:57.374Z,245
2016-12-01T09:51:57.865Z,255
2016-12-01T09:52:58.208Z,255
2016-12-01T09:53:58.560Z,255
2016-12-01T09:54:57.796Z,260
2016-12-01T09:55:57.851Z,280
2016-12-01T09:56:57.384Z,305
2016-12-01T09:57:57.453Z,335
2016-12-01T09:58:57.623Z,330
2016-12-01T09:59:57.511Z,310
2016-12-01T10:00:57.620Z,280
2016-12-01T10:01:57.532Z,250
2016-12-01T10:02:57.574Z,250
2016-12-01T10:03:57.420Z,230
2016-12-01T10:04:57.573Z,230
2016-12-01T10:05:57.674Z,245
2016-12-01T10:06:57.652Z,270
2016-12-01T10:07:57.657Z,285
2016-12-01T10:08:57.586Z,245
2016-12-01T10:09:57.821Z,230
2016-12-01T10:10:57.553Z,225
2016-12-01T10:11:57.560Z,240
2016-12-01T10:12:57.746Z,260
2016-12-01T10:13:57.461Z,260
2016-12-01T10:14:57.880Z,235
2016-12-01T10:15:57.646Z,210
2016-12-01T10:16:57.716Z,220
2016-12-01T10:17:57.750Z,225
2016-12-01T10:18:57.764Z,235
2016-12-01T10:19:57.617Z,230
2016-12-01T10:20:57.774Z,205
2016-12-01T10:21:57.532Z,190
2016-12-01T10:22:57.803Z,185
2016-12-01T10:23:57.644Z,200
2016-12-01T10:24:57.671Z,200
2016-12-01T10:25:57.684Z,200
2016-12-01T10:26:57.758Z,215
2016-12-01T10:27:57.845Z,210
2016-12-01T10:28:57.686Z,190
2016-12-01T10:29:57.443Z,180
2016-12-01T10:30:57.541Z,185
2016-12-01T10:31:57.386Z,185
2016-12-01T10:32:57.597Z,180
2016-12-01T10:33:57.563Z,180
2016-12-01T10:34:57.753Z,175
2016-12-01T10:35:57.654Z,185
2016-12-01T10:36:57.629Z,185
2016-12-01T10:37:57.502Z,180
2016-12-01T10:38:57.573Z,150
2016-12-01T10:39:57.528Z,155
2016-12-01T10:40:57.579Z,155
2016-12-01T10:41:57.446Z,155
2016-12-01T10:42:57.630Z,160
2016-12-01T10:43:57.545Z,140
2016-12-01T10:44:57.632Z,135
2016-12-01T10:45:57.825Z,135
2016-12-01T10:46:57.718Z,145
2016-12-01T10:47:57.721Z,135
2016-12-01T10:48:57.756Z,100
2016-12-01T10:49:57.660Z,85
2016-12-01T10:50:57.713Z,80
2016-12-01T10:51:57.696Z,80
2016-12-01T10:52:57.503Z,95
2016-12-01T10:53:57.692Z,120
2016-12-01T10:54:57.672Z,145
2016-12-01T10:55:57.658Z,155
2016-12-01T10:56:57.338Z,135
2016-12-01T10:57:57.560Z,100
2016-12-01T10:58:57.685Z,90
2016-12-01T10:59:57.511Z,85
2016-12-01T11:00:57.667Z,80
2016-12-01T11:01:57.515Z,75
2016-12-01T11:02:57.650Z,85
2016-12-01T11:03:57.661Z,75
2016-12-01T11:04:57.617Z,75
2016-12-01T11:05:57.589Z,90
2016-12-01T11:06:57.716Z,80
2016-12-01T11:07:57.868Z,85
2016-12-01T11:08:57.785Z,105
2016-12-01T11:09:57.776Z,105
2016-12-01T11:10:57.857Z,95
2016-12-01T11:11:57.731Z,85
2016-12-01T11:12:57.829Z,80
2016-12-01T11:13:57.941Z,75
2016-12-01T11:14:57.786Z,80
2016-12-01T11:15:57.668Z,95
2016-12-01T11:16:57.654Z,120
2016-12-01T11:17:57.923Z,140
2016-12-01T11:18:57.813Z,125
2016-12-01T11:19:57.672Z,125
2016-12-01T11:20:57.673Z,115
2016-12-01T11:21:57.631Z,110
2016-12-01T11:22:57.649Z,100
2016-12-01T11:23:57.687Z,110
2016-12-01T11:24:57.918Z,95
2016-12-01T11:25:57.769Z,90
2016-12-01T11:26:57.731Z,90
2016-12-01T11:27:57.757Z,90
2016-12-01T11:28:57.693Z,95
2016-12-01T11:29:57.762Z,95
2016-12-01T11:30:58.528Z,100
2016-12-01T11:31:57.785Z,105
2016-12-01T11:32:57.771Z,110
2016-12-01T11:33:57.720Z,115
2016-12-01T11:34:57.546Z,110
2016-12-01T11:35:57.802Z,110
2016-12-01T11:36:57.795Z,110
2016-12-01T11:37:57.981Z,110
2016-12-01T11:38:57.903Z,105
2016-12-01T11:39:57.783Z,95
2016-12-01T11:40:57.741Z,100
2016-12-01T11:41:57.778Z,105
2016-12-01T11:42:57.618Z,100
2016-12-01T11:43:57.759Z,100
2016-12-01T11:44:57.652Z,100
2016-12-01T11:45:57.806Z,95
2016-12-01T11:46:57.889Z,100
2016-12-01T11:47:57.761Z,95
2016-12-01T11:48:57.863Z,95
2016-12-01T11:49:57.775Z,105
2016-12-01T11:50:57.698Z,105
2016-12-01T11:51:57.608Z,100
2016-12-01T11:52:58.188Z,100
2016-12-01T11:53:57.609Z,110
2016-12-01T11:54:57.579Z,95
2016-12-01T11:55:57.807Z,100
2016-12-01T11:56:57.577Z,115
2016-12-01T11:57:57.806Z,100
2016-12-01T11:58:57.716Z,95
2016-12-01T11:59:57.554Z,95
2016-12-01T12:00:57.683Z,105
2016-12-01T12:01:57.591Z,105
2016-12-01T12:02:57.549Z,100
2016-12-01T12:03:57.821Z,105
2016-12-01T12:04:57.686Z,130
2016-12-01T12:05:57.750Z,120
2016-12-01T12:06:57.575Z,100
2016-12-01T12:07:57.870Z,90
2016-12-01T12:08:57.815Z,90
2016-12-01T12:09:57.736Z,100
2016-12-01T12:10:57.853Z,90
2016-12-01T12:11:57.801Z,90
2016-12-01T12:12:58.012Z,100
2016-12-01T12:13:57.921Z,100
2016-12-01T12:14:57.867Z,95
2016-12-01T12:15:57.680Z,90
2016-12-01T12:16:57.632Z,90
2016-12-01T12:17:57.888Z,95
2016-12-01T12:18:57.845Z,110
2016-12-01T12:19:57.757Z,105
2016-12-01T12:20:57.969Z,95
2016-12-01T12:21:58.899Z,105
2016-12-01T12:22:57.968Z,105
2016-12-01T12:23:57.853Z,100
2016-12-01T12:24:58.917Z,95
2016-12-01T12:25:57.704Z,95
2016-12-01T12:26:57.671Z,95
2016-12-01T12:27:57.834Z,100
2016-12-01T12:28:57.905Z,105
2016-12-01T12:29:57.952Z,95
2016-12-01T12:30:57.959Z,100
2016-12-01T12:31:57.867Z,115
2016-12-01T12:32:57.808Z,110
2016-12-01T12:33:57.807Z,115
2016-12-01T12:34:57.809Z,110
2016-12-01T12:35:57.923Z,105
2016-12-01T12:36:57.939Z,90
2016-12-01T12:37:57.962Z,85
2016-12-01T12:38:57.857Z,80
2016-12-01T12:39:57.812Z,80
2016-12-01T12:40:57.943Z,75
2016-12-01T12:41:57.989Z,70
2016-12-01T12:42:57.778Z,65
2016-12-01T12:43:57.750Z,75
2016-12-01T12:44:57.868Z,85
2016-12-01T12:45:57.804Z,85
2016-12-01T12:46:57.988Z,75
2016-12-01T12:47:57.746Z,65
2016-12-01T12:48:58.242Z,65
2016-12-01T12:49:58.101Z,75
2016-12-01T12:50:57.961Z,75
2016-12-01T12:51:57.918Z,70
2016-12-01T12:52:57.811Z,75
2016-12-01T12:53:58.041Z,60
2016-12-01T12:54:57.999Z,70
2016-12-01T12:55:57.900Z,65
2016-12-01T12:56:57.876Z,55
2016-12-01T12:57:57.833Z,45
2016-12-01T12:58:57.936Z,45
2016-12-01T12:59:57.940Z,50
2016-12-01T13:00:57.921Z,40
2016-12-01T13:01:58.299Z,40
2016-12-01T13:02:58.201Z,35
2016-12-01T13:03:57.908Z,40
2016-12-01T13:04:57.883Z,50
2016-12-01T13:05:57.564Z,55
2016-12-01T13:06:57.477Z,65
2016-12-01T13:07:57.399Z,70
2016-12-01T13:08:57.413Z,65
2016-12-01T13:09:57.481Z,70
2016-12-01T13:10:57.437Z,75
2016-12-01T13:11:57.581Z,75
2016-12-01T13:12:57.501Z,80
2016-12-01T13:13:57.439Z,85
2016-12-01T13:14:57.565Z,80
2016-12-01T13:15:57.668Z,75
2016-12-01T13:16:57.590Z,75
2016-12-01T13:17:57.476Z,75
2016-12-01T13:18:57.522Z,75
2016-12-01T13:19:57.813Z,75
2016-12-01T13:20:57.529Z,75
2016-12-01T13:21:57.587Z,75
2016-12-01T13:22:57.474Z,70
2016-12-01T13:23:57.553Z,65
2016-12-01T13:24:57.634Z,65
2016-12-01T13:25:58.898Z,60
2016-12-01T13:26:57.821Z,65
2016-12-01T13:27:57.425Z,55
2016-12-01T13:28:57.556Z,50
2016-12-01T13:29:57.499Z,50
2016-12-01T13:30:57.474Z,55
2016-12-01T13:31:57.607Z,55
2016-12-01T13:32:57.454Z,50
2016-12-01T13:33:57.513Z,45
2016-12-01T13:34:57.553Z,45
2016-12-01T13:35:57.590Z,45
2016-12-01T13:36:57.473Z,40
2016-12-01T13:37:57.746Z,40
2016-12-01T13:38:58.694Z,40
2016-12-01T13:39:57.565Z,35
2016-12-01T13:40:57.730Z,40
2016-12-01T13:41:57.523Z,45
2016-12-01T13:42:57.703Z,40
2016-12-01T13:43:57.551Z,40
2016-12-01T13:44:57.525Z,40
2016-12-01T13:45:57.622Z,40
2016-12-01T13:46:57.587Z,45
2016-12-01T13:47:57.751Z,45
2016-12-01T13:48:57.516Z,45
2016-12-01T13:49:57.606Z,55
2016-12-01T13:50:57.591Z,55
2016-12-01T13:51:58.291Z,50
2016-12-01T13:52:57.510Z,55
2016-12-01T13:53:57.485Z,55
2016-12-01T13:54:57.421Z,55
2016-12-01T13:55:57.653Z,60
2016-12-01T13:56:57.704Z,65
2016-12-01T13:57:57.611Z,65
2016-12-01T13:58:57.536Z,65
2016-12-01T13:59:57.484Z,70
2016-12-01T14:00:57.724Z,70
2016-12-01T14:01:57.637Z,65
2016-12-01T14:02:57.504Z,60
2016-12-01T14:03:57.529Z,60
2016-12-01T14:04:57.491Z,60
2016-12-01T14:05:58.176Z,55
2016-12-01T14:06:57.573Z,60
2016-12-01T14:07:57.482Z,60
2016-12-01T14:08:57.583Z,60
2016-12-01T14:09:57.685Z,55
2016-12-01T14:10:57.534Z,60
2016-12-01T14:11:57.515Z,55
2016-12-01T14:12:58.075Z,55
2016-12-01T14:13:57.728Z,55
2016-12-01T14:14:57.534Z,55
2016-12-01T14:15:57.573Z,55
2016-12-01T14:16:57.472Z,55
2016-12-01T14:17:57.598Z,55
2016-12-01T14:18:57.532Z,45
2016-12-01T14:19:57.559Z,45
2016-12-01T14:20:57.583Z,45
2016-12-01T14:21:57.515Z,40
2016-12-01T14:22:57.501Z,35
2016-12-01T14:23:57.540Z,35
2016-12-01T14:24:57.582Z,40
2016-12-01T14:25:58.970Z,40
2016-12-01T14:26:57.642Z,40